sensor_id;sensor_type;location;lat;lon;timestamp;P1;durP1;ratioP1;P2;durP2;ratioP2
43857;SDS011;29507;51.284;5.758;2023-07-22T00:00:29;15.50;;;6.18;;
43857;SDS011;29507;51.284;5.758;2023-07-22T00:02:55;10.18;;;5.22;;
43857;SDS011;29507;51.284;5.758;2023-07-22T00:05:20;11.90;;;5.72;;
43857;SDS011;29507;51.284;5.758;2023-07-22T00:07:49;9.73;;;5.10;;
43857;SDS011;29507;51.284;5.758;2023-07-22T00:10:15;10.45;;;5.60;;
43857;SDS011;29507;51.284;5.758;2023-07-22T00:12:41;11.85;;;6.00;;
43857;SDS011;29507;51.284;5.758;2023-07-22T00:15:07;10.77;;;4.97;;
43857;SDS011;29507;51.284;5.758;2023-07-22T00:17:33;11.10;;;5.53;;
43857;SDS011;29507;51.284;5.758;2023-07-22T00:19:58;12.30;;;5.22;;
43857;SDS011;29507;51.284;5.758;2023-07-22T00:22:25;12.38;;;5.65;;
43857;SDS011;29507;51.284;5.758;2023-07-22T00:24:52;10.65;;;5.40;;
43857;SDS011;29507;51.284;5.758;2023-07-22T00:27:17;10.43;;;5.38;;
43857;SDS011;29507;51.284;5.758;2023-07-22T00:29:43;10.43;;;6.07;;
43857;SDS011;29507;51.284;5.758;2023-07-22T00:32:09;12.13;;;6.07;;
43857;SDS011;29507;51.284;5.758;2023-07-22T00:34:34;12.68;;;6.07;;
43857;SDS011;29507;51.284;5.758;2023-07-22T00:37:01;12.77;;;6.10;;
43857;SDS011;29507;51.284;5.758;2023-07-22T00:39:27;11.63;;;6.00;;
43857;SDS011;29507;51.284;5.758;2023-07-22T00:41:53;14.48;;;6.82;;
43857;SDS011;29507;51.284;5.758;2023-07-22T00:44:18;9.75;;;5.10;;
43857;SDS011;29507;51.284;5.758;2023-07-22T00:46:44;13.60;;;6.15;;
43857;SDS011;29507;51.284;5.758;2023-07-22T00:49:10;10.82;;;5.78;;
43857;SDS011;29507;51.284;5.758;2023-07-22T00:51:37;11.15;;;5.15;;
43857;SDS011;29507;51.284;5.758;2023-07-22T00:54:03;10.68;;;5.90;;
43857;SDS011;29507;51.284;5.758;2023-07-22T00:56:30;9.63;;;5.72;;
43857;SDS011;29507;51.284;5.758;2023-07-22T00:58:58;10.30;;;5.35;;
43857;SDS011;29507;51.284;5.758;2023-07-22T01:01:24;9.55;;;5.05;;
43857;SDS011;29507;51.284;5.758;2023-07-22T01:03:49;9.40;;;5.82;;
43857;SDS011;29507;51.284;5.758;2023-07-22T01:06:15;9.90;;;5.13;;
43857;SDS011;29507;51.284;5.758;2023-07-22T01:08:43;9.30;;;4.97;;
43857;SDS011;29507;51.284;5.758;2023-07-22T01:11:08;10.90;;;6.07;;
43857;SDS011;29507;51.284;5.758;2023-07-22T01:13:34;12.98;;;5.15;;
43857;SDS011;29507;51.284;5.758;2023-07-22T01:15:59;9.55;;;5.55;;
43857;SDS011;29507;51.284;5.758;2023-07-22T01:18:25;10.45;;;5.15;;
43857;SDS011;29507;51.284;5.758;2023-07-22T01:20:51;11.27;;;4.60;;
43857;SDS011;29507;51.284;5.758;2023-07-22T01:23:17;10.65;;;5.18;;
43857;SDS011;29507;51.284;5.758;2023-07-22T01:25:43;10.88;;;5.45;;
43857;SDS011;29507;51.284;5.758;2023-07-22T01:28:09;11.57;;;5.03;;
43857;SDS011;29507;51.284;5.758;2023-07-22T01:30:36;12.82;;;5.75;;
43857;SDS011;29507;51.284;5.758;2023-07-22T01:33:01;7.90;;;4.35;;
43857;SDS011;29507;51.284;5.758;2023-07-22T01:35:28;9.00;;;4.60;;
43857;SDS011;29507;51.284;5.758;2023-07-22T01:37:53;10.13;;;4.57;;
43857;SDS011;29507;51.284;5.758;2023-07-22T01:40:20;9.85;;;4.47;;
43857;SDS011;29507;51.284;5.758;2023-07-22T01:42:45;8.20;;;4.68;;
43857;SDS011;29507;51.284;5.758;2023-07-22T01:45:11;12.43;;;5.43;;
43857;SDS011;29507;51.284;5.758;2023-07-22T01:47:37;9.93;;;4.85;;
43857;SDS011;29507;51.284;5.758;2023-07-22T01:50:04;9.20;;;5.15;;
43857;SDS011;29507;51.284;5.758;2023-07-22T01:52:31;14.40;;;5.97;;
43857;SDS011;29507;51.284;5.758;2023-07-22T01:54:57;13.95;;;5.05;;
43857;SDS011;29507;51.284;5.758;2023-07-22T01:57:23;9.18;;;4.47;;
43857;SDS011;29507;51.284;5.758;2023-07-22T01:59:48;10.80;;;5.00;;
43857;SDS011;29507;51.284;5.758;2023-07-22T02:02:14;9.93;;;4.35;;
43857;SDS011;29507;51.284;5.758;2023-07-22T02:04:41;11.07;;;5.00;;
43857;SDS011;29507;51.284;5.758;2023-07-22T02:07:06;10.73;;;5.07;;
43857;SDS011;29507;51.284;5.758;2023-07-22T02:09:32;10.40;;;4.80;;
43857;SDS011;29507;51.284;5.758;2023-07-22T02:12:00;11.70;;;5.23;;
43857;SDS011;29507;51.284;5.758;2023-07-22T02:14:26;11.98;;;5.93;;
43857;SDS011;29507;51.284;5.758;2023-07-22T02:16:52;13.15;;;5.50;;
43857;SDS011;29507;51.284;5.758;2023-07-22T02:19:17;14.95;;;5.55;;
43857;SDS011;29507;51.284;5.758;2023-07-22T02:21:43;10.63;;;5.28;;
43857;SDS011;29507;51.284;5.758;2023-07-22T02:24:09;9.95;;;4.95;;
43857;SDS011;29507;51.284;5.758;2023-07-22T02:26:35;9.77;;;5.15;;
43857;SDS011;29507;51.284;5.758;2023-07-22T02:29:01;11.57;;;5.43;;
43857;SDS011;29507;51.284;5.758;2023-07-22T02:31:26;11.73;;;5.63;;
43857;SDS011;29507;51.284;5.758;2023-07-22T02:33:52;10.73;;;6.00;;
43857;SDS011;29507;51.284;5.758;2023-07-22T02:36:18;13.52;;;5.60;;
43857;SDS011;29507;51.284;5.758;2023-07-22T02:38:43;11.10;;;5.38;;
43857;SDS011;29507;51.284;5.758;2023-07-22T02:41:09;11.05;;;5.20;;
43857;SDS011;29507;51.284;5.758;2023-07-22T02:43:35;15.45;;;5.63;;
43857;SDS011;29507;51.284;5.758;2023-07-22T02:46:01;11.20;;;5.78;;
43857;SDS011;29507;51.284;5.758;2023-07-22T02:48:28;17.38;;;5.85;;
43857;SDS011;29507;51.284;5.758;2023-07-22T02:50:54;12.25;;;5.70;;
43857;SDS011;29507;51.284;5.758;2023-07-22T02:53:20;11.35;;;5.57;;
43857;SDS011;29507;51.284;5.758;2023-07-22T02:55:46;12.35;;;5.57;;
43857;SDS011;29507;51.284;5.758;2023-07-22T02:58:11;11.90;;;6.07;;
43857;SDS011;29507;51.284;5.758;2023-07-22T03:00:37;14.88;;;6.03;;
43857;SDS011;29507;51.284;5.758;2023-07-22T03:03:03;10.57;;;5.68;;
43857;SDS011;29507;51.284;5.758;2023-07-22T03:05:30;10.90;;;5.05;;
43857;SDS011;29507;51.284;5.758;2023-07-22T03:07:57;15.57;;;5.88;;
43857;SDS011;29507;51.284;5.758;2023-07-22T03:10:23;17.75;;;5.97;;
43857;SDS011;29507;51.284;5.758;2023-07-22T03:12:54;13.35;;;7.00;;
43857;SDS011;29507;51.284;5.758;2023-07-22T03:15:21;11.05;;;5.20;;
43857;SDS011;29507;51.284;5.758;2023-07-22T03:17:48;12.40;;;5.22;;
43857;SDS011;29507;51.284;5.758;2023-07-22T03:20:14;9.25;;;4.82;;
43857;SDS011;29507;51.284;5.758;2023-07-22T03:22:41;11.15;;;5.72;;
43857;SDS011;29507;51.284;5.758;2023-07-22T03:25:08;11.40;;;5.50;;
43857;SDS011;29507;51.284;5.758;2023-07-22T03:27:35;12.15;;;5.57;;
43857;SDS011;29507;51.284;5.758;2023-07-22T03:30:02;9.90;;;5.32;;
43857;SDS011;29507;51.284;5.758;2023-07-22T03:32:28;11.18;;;5.38;;
43857;SDS011;29507;51.284;5.758;2023-07-22T03:34:54;15.70;;;6.22;;
43857;SDS011;29507;51.284;5.758;2023-07-22T03:37:19;12.02;;;6.05;;
43857;SDS011;29507;51.284;5.758;2023-07-22T03:39:45;10.30;;;5.35;;
43857;SDS011;29507;51.284;5.758;2023-07-22T03:42:11;13.45;;;6.50;;
43857;SDS011;29507;51.284;5.758;2023-07-22T03:44:36;11.93;;;5.60;;
43857;SDS011;29507;51.284;5.758;2023-07-22T03:47:02;10.02;;;5.30;;
43857;SDS011;29507;51.284;5.758;2023-07-22T03:49:28;9.68;;;5.53;;
43857;SDS011;29507;51.284;5.758;2023-07-22T03:51:53;11.52;;;5.50;;
43857;SDS011;29507;51.284;5.758;2023-07-22T03:54:19;15.18;;;6.32;;
43857;SDS011;29507;51.284;5.758;2023-07-22T03:56:45;12.45;;;6.03;;
43857;SDS011;29507;51.284;5.758;2023-07-22T03:59:10;13.77;;;6.15;;
43857;SDS011;29507;51.284;5.758;2023-07-22T04:01:36;12.07;;;6.00;;
43857;SDS011;29507;51.284;5.758;2023-07-22T04:04:01;12.02;;;5.90;;
43857;SDS011;29507;51.284;5.758;2023-07-22T04:06:27;10.07;;;4.90;;
43857;SDS011;29507;51.284;5.758;2023-07-22T04:08:52;13.20;;;6.30;;
43857;SDS011;29507;51.284;5.758;2023-07-22T04:11:18;10.13;;;5.70;;
43857;SDS011;29507;51.284;5.758;2023-07-22T04:13:44;11.23;;;5.40;;
43857;SDS011;29507;51.284;5.758;2023-07-22T04:16:09;12.65;;;5.13;;
43857;SDS011;29507;51.284;5.758;2023-07-22T04:18:35;13.27;;;5.68;;
43857;SDS011;29507;51.284;5.758;2023-07-22T04:21:00;11.43;;;5.63;;
43857;SDS011;29507;51.284;5.758;2023-07-22T04:23:26;11.88;;;4.63;;
43857;SDS011;29507;51.284;5.758;2023-07-22T04:25:52;13.70;;;6.30;;
43857;SDS011;29507;51.284;5.758;2023-07-22T04:28:18;14.45;;;5.25;;
43857;SDS011;29507;51.284;5.758;2023-07-22T04:30:53;18.10;;;6.47;;
43857;SDS011;29507;51.284;5.758;2023-07-22T04:33:24;13.38;;;6.30;;
43857;SDS011;29507;51.284;5.758;2023-07-22T04:35:50;12.13;;;5.90;;
43857;SDS011;29507;51.284;5.758;2023-07-22T04:38:19;12.60;;;5.80;;
43857;SDS011;29507;51.284;5.758;2023-07-22T04:40:44;15.93;;;5.20;;
43857;SDS011;29507;51.284;5.758;2023-07-22T04:43:10;12.02;;;5.90;;
43857;SDS011;29507;51.284;5.758;2023-07-22T04:45:37;12.07;;;5.85;;
43857;SDS011;29507;51.284;5.758;2023-07-22T04:48:05;15.18;;;5.78;;
43857;SDS011;29507;51.284;5.758;2023-07-22T04:50:31;13.68;;;6.53;;
43857;SDS011;29507;51.284;5.758;2023-07-22T04:52:57;12.10;;;5.53;;
43857;SDS011;29507;51.284;5.758;2023-07-22T04:55:23;12.80;;;6.30;;
43857;SDS011;29507;51.284;5.758;2023-07-22T04:57:48;11.55;;;6.03;;
43857;SDS011;29507;51.284;5.758;2023-07-22T05:00:16;15.27;;;6.22;;
43857;SDS011;29507;51.284;5.758;2023-07-22T05:02:45;11.15;;;5.57;;
43857;SDS011;29507;51.284;5.758;2023-07-22T05:05:15;11.93;;;5.78;;
43857;SDS011;29507;51.284;5.758;2023-07-22T05:07:41;11.63;;;6.18;;
43857;SDS011;29507;51.284;5.758;2023-07-22T05:10:07;12.75;;;6.38;;
43857;SDS011;29507;51.284;5.758;2023-07-22T05:12:37;13.25;;;6.55;;
43857;SDS011;29507;51.284;5.758;2023-07-22T05:15:03;11.77;;;6.60;;
43857;SDS011;29507;51.284;5.758;2023-07-22T05:17:30;12.50;;;6.25;;
43857;SDS011;29507;51.284;5.758;2023-07-22T05:19:56;12.40;;;6.53;;
43857;SDS011;29507;51.284;5.758;2023-07-22T05:22:22;10.45;;;6.10;;
43857;SDS011;29507;51.284;5.758;2023-07-22T05:24:48;13.32;;;6.60;;
43857;SDS011;29507;51.284;5.758;2023-07-22T05:27:13;11.80;;;5.57;;
43857;SDS011;29507;51.284;5.758;2023-07-22T05:29:40;12.82;;;6.10;;
43857;SDS011;29507;51.284;5.758;2023-07-22T05:32:05;14.90;;;6.20;;
43857;SDS011;29507;51.284;5.758;2023-07-22T05:34:31;12.40;;;5.97;;
43857;SDS011;29507;51.284;5.758;2023-07-22T05:36:57;12.23;;;6.03;;
43857;SDS011;29507;51.284;5.758;2023-07-22T05:39:22;12.00;;;5.93;;
43857;SDS011;29507;51.284;5.758;2023-07-22T05:41:48;11.15;;;5.82;;
43857;SDS011;29507;51.284;5.758;2023-07-22T05:44:14;16.45;;;5.72;;
43857;SDS011;29507;51.284;5.758;2023-07-22T05:46:39;15.23;;;5.97;;
43857;SDS011;29507;51.284;5.758;2023-07-22T05:49:05;13.38;;;6.57;;
43857;SDS011;29507;51.284;5.758;2023-07-22T05:51:31;11.38;;;6.13;;
43857;SDS011;29507;51.284;5.758;2023-07-22T05:53:56;13.35;;;6.30;;
43857;SDS011;29507;51.284;5.758;2023-07-22T05:56:22;11.10;;;5.70;;
43857;SDS011;29507;51.284;5.758;2023-07-22T05:58:48;11.40;;;6.65;;
43857;SDS011;29507;51.284;5.758;2023-07-22T06:01:14;13.43;;;6.40;;
43857;SDS011;29507;51.284;5.758;2023-07-22T06:03:40;11.48;;;6.05;;
43857;SDS011;29507;51.284;5.758;2023-07-22T06:06:05;13.38;;;6.68;;
43857;SDS011;29507;51.284;5.758;2023-07-22T06:08:31;10.65;;;6.20;;
43857;SDS011;29507;51.284;5.758;2023-07-22T06:10:56;14.07;;;6.35;;
43857;SDS011;29507;51.284;5.758;2023-07-22T06:13:22;13.40;;;6.90;;
43857;SDS011;29507;51.284;5.758;2023-07-22T06:15:48;14.18;;;6.10;;
43857;SDS011;29507;51.284;5.758;2023-07-22T06:18:13;11.32;;;5.93;;
43857;SDS011;29507;51.284;5.758;2023-07-22T06:20:39;12.25;;;6.57;;
43857;SDS011;29507;51.284;5.758;2023-07-22T06:23:05;15.98;;;6.05;;
43857;SDS011;29507;51.284;5.758;2023-07-22T06:25:31;14.68;;;6.47;;
43857;SDS011;29507;51.284;5.758;2023-07-22T06:27:56;13.27;;;6.95;;
43857;SDS011;29507;51.284;5.758;2023-07-22T06:30:22;17.73;;;6.85;;
43857;SDS011;29507;51.284;5.758;2023-07-22T06:32:47;14.10;;;6.55;;
43857;SDS011;29507;51.284;5.758;2023-07-22T06:35:13;12.75;;;6.95;;
43857;SDS011;29507;51.284;5.758;2023-07-22T06:37:39;15.35;;;6.63;;
43857;SDS011;29507;51.284;5.758;2023-07-22T06:40:05;15.35;;;6.15;;
43857;SDS011;29507;51.284;5.758;2023-07-22T06:42:31;12.73;;;6.03;;
43857;SDS011;29507;51.284;5.758;2023-07-22T06:44:57;15.50;;;6.18;;
43857;SDS011;29507;51.284;5.758;2023-07-22T06:47:22;11.25;;;6.35;;
43857;SDS011;29507;51.284;5.758;2023-07-22T06:49:48;12.88;;;6.68;;
43857;SDS011;29507;51.284;5.758;2023-07-22T06:52:13;13.93;;;6.72;;
43857;SDS011;29507;51.284;5.758;2023-07-22T06:54:39;13.52;;;7.03;;
43857;SDS011;29507;51.284;5.758;2023-07-22T06:57:05;20.90;;;8.13;;
43857;SDS011;29507;51.284;5.758;2023-07-22T06:59:31;17.80;;;7.70;;
43857;SDS011;29507;51.284;5.758;2023-07-22T07:01:57;13.25;;;6.15;;
43857;SDS011;29507;51.284;5.758;2023-07-22T07:04:23;12.88;;;7.00;;
43857;SDS011;29507;51.284;5.758;2023-07-22T07:06:49;14.73;;;7.75;;
43857;SDS011;29507;51.284;5.758;2023-07-22T07:09:15;16.70;;;7.63;;
43857;SDS011;29507;51.284;5.758;2023-07-22T07:11:41;14.93;;;6.65;;
43857;SDS011;29507;51.284;5.758;2023-07-22T07:14:07;17.55;;;7.85;;
43857;SDS011;29507;51.284;5.758;2023-07-22T07:16:32;13.77;;;7.93;;
43857;SDS011;29507;51.284;5.758;2023-07-22T07:18:59;15.73;;;7.38;;
43857;SDS011;29507;51.284;5.758;2023-07-22T07:21:25;15.20;;;6.90;;
43857;SDS011;29507;51.284;5.758;2023-07-22T07:23:52;15.38;;;7.05;;
43857;SDS011;29507;51.284;5.758;2023-07-22T07:26:18;16.35;;;6.65;;
43857;SDS011;29507;51.284;5.758;2023-07-22T07:28:45;16.08;;;7.22;;
43857;SDS011;29507;51.284;5.758;2023-07-22T07:31:15;15.63;;;7.40;;
43857;SDS011;29507;51.284;5.758;2023-07-22T07:33:41;16.77;;;7.70;;
43857;SDS011;29507;51.284;5.758;2023-07-22T07:36:07;14.02;;;6.60;;
43857;SDS011;29507;51.284;5.758;2023-07-22T07:38:32;15.68;;;6.70;;
43857;SDS011;29507;51.284;5.758;2023-07-22T07:40:59;11.60;;;6.03;;
43857;SDS011;29507;51.284;5.758;2023-07-22T07:43:26;14.73;;;6.13;;
43857;SDS011;29507;51.284;5.758;2023-07-22T07:48:43;13.88;;;5.90;;
43857;SDS011;29507;51.284;5.758;2023-07-22T07:51:09;10.10;;;6.03;;
43857;SDS011;29507;51.284;5.758;2023-07-22T07:53:37;11.18;;;5.30;;
43857;SDS011;29507;51.284;5.758;2023-07-22T07:56:02;12.55;;;6.55;;
43857;SDS011;29507;51.284;5.758;2023-07-22T07:58:28;12.52;;;5.65;;
43857;SDS011;29507;51.284;5.758;2023-07-22T08:00:54;12.10;;;6.25;;
43857;SDS011;29507;51.284;5.758;2023-07-22T08:03:19;11.65;;;6.10;;
43857;SDS011;29507;51.284;5.758;2023-07-22T08:05:45;14.02;;;6.00;;
43857;SDS011;29507;51.284;5.758;2023-07-22T08:08:11;12.50;;;6.68;;
43857;SDS011;29507;51.284;5.758;2023-07-22T08:10:39;13.65;;;5.70;;
43857;SDS011;29507;51.284;5.758;2023-07-22T08:13:05;10.70;;;5.25;;
43857;SDS011;29507;51.284;5.758;2023-07-22T08:15:31;9.25;;;5.28;;
43857;SDS011;29507;51.284;5.758;2023-07-22T08:17:56;12.85;;;5.47;;
43857;SDS011;29507;51.284;5.758;2023-07-22T08:20:22;11.48;;;5.43;;
43857;SDS011;29507;51.284;5.758;2023-07-22T08:22:48;11.45;;;4.72;;
43857;SDS011;29507;51.284;5.758;2023-07-22T08:25:13;17.73;;;5.75;;
43857;SDS011;29507;51.284;5.758;2023-07-22T08:27:39;10.25;;;5.22;;
43857;SDS011;29507;51.284;5.758;2023-07-22T08:30:05;9.18;;;4.68;;
43857;SDS011;29507;51.284;5.758;2023-07-22T08:32:32;13.18;;;5.00;;
43857;SDS011;29507;51.284;5.758;2023-07-22T08:34:57;10.80;;;5.00;;
43857;SDS011;29507;51.284;5.758;2023-07-22T08:37:23;10.02;;;4.53;;
43857;SDS011;29507;51.284;5.758;2023-07-22T08:39:49;10.23;;;5.15;;
43857;SDS011;29507;51.284;5.758;2023-07-22T08:42:14;13.98;;;5.05;;
43857;SDS011;29507;51.284;5.758;2023-07-22T08:44:44;12.93;;;4.70;;
43857;SDS011;29507;51.284;5.758;2023-07-22T08:47:15;7.75;;;4.10;;
43857;SDS011;29507;51.284;5.758;2023-07-22T08:49:43;12.90;;;4.03;;
43857;SDS011;29507;51.284;5.758;2023-07-22T08:52:15;7.75;;;3.75;;
43857;SDS011;29507;51.284;5.758;2023-07-22T08:54:42;8.07;;;3.30;;
43857;SDS011;29507;51.284;5.758;2023-07-22T08:57:09;7.22;;;3.05;;
43857;SDS011;29507;51.284;5.758;2023-07-22T08:59:37;8.55;;;3.45;;
43857;SDS011;29507;51.284;5.758;2023-07-22T09:02:03;6.63;;;3.53;;
43857;SDS011;29507;51.284;5.758;2023-07-22T09:04:30;8.77;;;3.03;;
43857;SDS011;29507;51.284;5.758;2023-07-22T09:06:56;8.18;;;3.80;;
43857;SDS011;29507;51.284;5.758;2023-07-22T09:09:22;6.20;;;2.75;;
43857;SDS011;29507;51.284;5.758;2023-07-22T09:11:50;8.60;;;3.55;;
43857;SDS011;29507;51.284;5.758;2023-07-22T09:14:19;5.88;;;3.22;;
43857;SDS011;29507;51.284;5.758;2023-07-22T09:16:45;7.82;;;2.78;;
43857;SDS011;29507;51.284;5.758;2023-07-22T09:19:11;8.82;;;3.08;;
43857;SDS011;29507;51.284;5.758;2023-07-22T09:21:36;8.32;;;2.70;;
43857;SDS011;29507;51.284;5.758;2023-07-22T09:24:04;9.70;;;2.90;;
43857;SDS011;29507;51.284;5.758;2023-07-22T09:26:48;6.20;;;2.83;;
43857;SDS011;29507;51.284;5.758;2023-07-22T09:29:15;7.97;;;3.25;;
43857;SDS011;29507;51.284;5.758;2023-07-22T09:31:51;10.75;;;3.33;;
43857;SDS011;29507;51.284;5.758;2023-07-22T09:34:17;7.25;;;2.85;;
43857;SDS011;29507;51.284;5.758;2023-07-22T09:36:53;5.82;;;2.45;;
43857;SDS011;29507;51.284;5.758;2023-07-22T09:39:25;5.68;;;2.97;;
43857;SDS011;29507;51.284;5.758;2023-07-22T09:41:51;5.43;;;2.55;;
43857;SDS011;29507;51.284;5.758;2023-07-22T09:44:20;6.60;;;2.85;;
43857;SDS011;29507;51.284;5.758;2023-07-22T09:46:47;6.60;;;2.70;;
43857;SDS011;29507;51.284;5.758;2023-07-22T09:49:14;4.40;;;2.40;;
43857;SDS011;29507;51.284;5.758;2023-07-22T09:51:42;10.27;;;3.23;;
43857;SDS011;29507;51.284;5.758;2023-07-22T09:54:08;7.65;;;3.22;;
43857;SDS011;29507;51.284;5.758;2023-07-22T09:56:44;8.70;;;2.78;;
43857;SDS011;29507;51.284;5.758;2023-07-22T09:59:11;7.75;;;3.00;;
43857;SDS011;29507;51.284;5.758;2023-07-22T10:01:40;6.53;;;2.72;;
43857;SDS011;29507;51.284;5.758;2023-07-22T10:04:07;5.28;;;2.53;;
43857;SDS011;29507;51.284;5.758;2023-07-22T10:06:35;6.78;;;2.53;;
43857;SDS011;29507;51.284;5.758;2023-07-22T10:09:03;6.78;;;2.78;;
43857;SDS011;29507;51.284;5.758;2023-07-22T10:11:33;5.70;;;2.10;;
43857;SDS011;29507;51.284;5.758;2023-07-22T10:14:03;7.10;;;2.50;;
43857;SDS011;29507;51.284;5.758;2023-07-22T10:16:29;6.10;;;2.20;;
43857;SDS011;29507;51.284;5.758;2023-07-22T10:18:56;11.32;;;2.63;;
43857;SDS011;29507;51.284;5.758;2023-07-22T10:21:25;3.50;;;2.00;;
43857;SDS011;29507;51.284;5.758;2023-07-22T10:23:53;5.57;;;1.80;;
43857;SDS011;29507;51.284;5.758;2023-07-22T10:26:20;4.38;;;1.92;;
43857;SDS011;29507;51.284;5.758;2023-07-22T10:28:46;6.28;;;1.95;;
43857;SDS011;29507;51.284;5.758;2023-07-22T10:31:14;4.97;;;1.75;;
43857;SDS011;29507;51.284;5.758;2023-07-22T10:33:45;3.00;;;1.10;;
43857;SDS011;29507;51.284;5.758;2023-07-22T10:36:15;4.70;;;1.52;;
43857;SDS011;29507;51.284;5.758;2023-07-22T10:38:42;4.80;;;1.48;;
43857;SDS011;29507;51.284;5.758;2023-07-22T10:41:14;7.32;;;1.80;;
43857;SDS011;29507;51.284;5.758;2023-07-22T10:43:53;6.20;;;1.60;;
43857;SDS011;29507;51.284;5.758;2023-07-22T10:46:30;3.78;;;1.75;;
43857;SDS011;29507;51.284;5.758;2023-07-22T10:51:41;4.10;;;1.40;;
43857;SDS011;29507;51.284;5.758;2023-07-22T10:54:14;3.67;;;1.52;;
43857;SDS011;29507;51.284;5.758;2023-07-22T10:56:43;4.47;;;1.55;;
43857;SDS011;29507;51.284;5.758;2023-07-22T11:01:36;2.35;;;1.13;;
43857;SDS011;29507;51.284;5.758;2023-07-22T11:06:32;5.35;;;1.90;;
43857;SDS011;29507;51.284;5.758;2023-07-22T11:08:58;4.20;;;1.45;;
43857;SDS011;29507;51.284;5.758;2023-07-22T11:11:40;3.25;;;1.42;;
43857;SDS011;29507;51.284;5.758;2023-07-22T11:14:13;8.07;;;1.10;;
43857;SDS011;29507;51.284;5.758;2023-07-22T11:16:41;4.10;;;1.38;;
43857;SDS011;29507;51.284;5.758;2023-07-22T11:19:08;3.10;;;1.27;;
43857;SDS011;29507;51.284;5.758;2023-07-22T11:21:33;3.97;;;1.40;;
43857;SDS011;29507;51.284;5.758;2023-07-22T11:23:59;3.08;;;1.33;;
43857;SDS011;29507;51.284;5.758;2023-07-22T11:26:24;5.35;;;1.38;;
43857;SDS011;29507;51.284;5.758;2023-07-22T11:28:50;3.90;;;1.40;;
43857;SDS011;29507;51.284;5.758;2023-07-22T11:31:18;3.60;;;1.23;;
43857;SDS011;29507;51.284;5.758;2023-07-22T11:33:43;2.88;;;1.13;;
43857;SDS011;29507;51.284;5.758;2023-07-22T11:36:11;5.82;;;1.38;;
43857;SDS011;29507;51.284;5.758;2023-07-22T11:38:38;2.70;;;1.48;;
43857;SDS011;29507;51.284;5.758;2023-07-22T11:41:04;6.03;;;1.13;;
43857;SDS011;29507;51.284;5.758;2023-07-22T11:43:30;3.83;;;1.27;;
43857;SDS011;29507;51.284;5.758;2023-07-22T11:45:56;3.20;;;0.93;;
43857;SDS011;29507;51.284;5.758;2023-07-22T11:48:22;2.95;;;1.23;;
43857;SDS011;29507;51.284;5.758;2023-07-22T11:50:48;2.85;;;1.23;;
43857;SDS011;29507;51.284;5.758;2023-07-22T11:53:13;4.50;;;1.00;;
43857;SDS011;29507;51.284;5.758;2023-07-22T11:55:40;2.25;;;1.25;;
43857;SDS011;29507;51.284;5.758;2023-07-22T11:58:05;2.42;;;1.20;;
43857;SDS011;29507;51.284;5.758;2023-07-22T12:00:32;4.05;;;1.20;;
43857;SDS011;29507;51.284;5.758;2023-07-22T12:03:04;3.10;;;1.42;;
43857;SDS011;29507;51.284;5.758;2023-07-22T12:05:31;4.65;;;1.50;;
43857;SDS011;29507;51.284;5.758;2023-07-22T12:08:00;2.65;;;1.38;;
43857;SDS011;29507;51.284;5.758;2023-07-22T12:10:29;5.20;;;1.13;;
43857;SDS011;29507;51.284;5.758;2023-07-22T12:12:54;2.17;;;1.02;;
43857;SDS011;29507;51.284;5.758;2023-07-22T12:15:25;4.93;;;1.20;;
43857;SDS011;29507;51.284;5.758;2023-07-22T12:17:59;3.08;;;1.38;;
43857;SDS011;29507;51.284;5.758;2023-07-22T12:20:29;2.50;;;1.10;;
43857;SDS011;29507;51.284;5.758;2023-07-22T12:22:57;2.40;;;1.30;;
43857;SDS011;29507;51.284;5.758;2023-07-22T12:25:24;4.65;;;1.48;;
43857;SDS011;29507;51.284;5.758;2023-07-22T12:27:50;3.35;;;1.35;;
43857;SDS011;29507;51.284;5.758;2023-07-22T12:30:16;4.47;;;1.10;;
43857;SDS011;29507;51.284;5.758;2023-07-22T12:32:42;2.50;;;1.13;;
43857;SDS011;29507;51.284;5.758;2023-07-22T12:35:08;2.78;;;1.38;;
43857;SDS011;29507;51.284;5.758;2023-07-22T12:37:34;5.60;;;1.25;;
43857;SDS011;29507;51.284;5.758;2023-07-22T12:40:00;2.70;;;1.08;;
43857;SDS011;29507;51.284;5.758;2023-07-22T12:42:26;3.53;;;1.13;;
43857;SDS011;29507;51.284;5.758;2023-07-22T12:44:52;5.35;;;1.40;;
43857;SDS011;29507;51.284;5.758;2023-07-22T12:47:18;2.70;;;1.30;;
43857;SDS011;29507;51.284;5.758;2023-07-22T12:49:43;3.88;;;1.35;;
43857;SDS011;29507;51.284;5.758;2023-07-22T12:52:09;2.38;;;1.13;;
43857;SDS011;29507;51.284;5.758;2023-07-22T12:54:36;3.00;;;1.10;;
43857;SDS011;29507;51.284;5.758;2023-07-22T12:57:01;4.00;;;1.40;;
43857;SDS011;29507;51.284;5.758;2023-07-22T12:59:27;4.68;;;1.45;;
43857;SDS011;29507;51.284;5.758;2023-07-22T13:01:53;3.13;;;1.13;;
43857;SDS011;29507;51.284;5.758;2023-07-22T13:04:19;5.03;;;1.30;;
43857;SDS011;29507;51.284;5.758;2023-07-22T13:06:45;3.60;;;1.20;;
43857;SDS011;29507;51.284;5.758;2023-07-22T13:09:10;5.35;;;1.67;;
43857;SDS011;29507;51.284;5.758;2023-07-22T13:11:36;3.78;;;1.30;;
43857;SDS011;29507;51.284;5.758;2023-07-22T13:14:02;3.63;;;1.20;;
43857;SDS011;29507;51.284;5.758;2023-07-22T13:16:28;3.30;;;1.27;;
43857;SDS011;29507;51.284;5.758;2023-07-22T13:18:53;3.20;;;1.25;;
43857;SDS011;29507;51.284;5.758;2023-07-22T13:21:19;3.90;;;1.27;;
43857;SDS011;29507;51.284;5.758;2023-07-22T13:23:45;2.78;;;1.15;;
43857;SDS011;29507;51.284;5.758;2023-07-22T13:26:11;3.00;;;1.00;;
43857;SDS011;29507;51.284;5.758;2023-07-22T13:28:36;2.70;;;0.88;;
43857;SDS011;29507;51.284;5.758;2023-07-22T13:31:02;2.97;;;1.08;;
43857;SDS011;29507;51.284;5.758;2023-07-22T13:33:28;3.17;;;1.05;;
43857;SDS011;29507;51.284;5.758;2023-07-22T13:35:53;3.92;;;1.80;;
43857;SDS011;29507;51.284;5.758;2023-07-22T13:38:19;2.85;;;1.13;;
43857;SDS011;29507;51.284;5.758;2023-07-22T13:40:46;2.17;;;0.90;;
43857;SDS011;29507;51.284;5.758;2023-07-22T13:43:11;2.30;;;0.80;;
43857;SDS011;29507;51.284;5.758;2023-07-22T13:45:37;2.80;;;0.82;;
43857;SDS011;29507;51.284;5.758;2023-07-22T13:48:03;2.55;;;0.90;;
43857;SDS011;29507;51.284;5.758;2023-07-22T13:50:29;2.45;;;1.10;;
43857;SDS011;29507;51.284;5.758;2023-07-22T13:52:55;3.15;;;0.90;;
43857;SDS011;29507;51.284;5.758;2023-07-22T13:55:21;2.15;;;0.88;;
43857;SDS011;29507;51.284;5.758;2023-07-22T13:57:46;3.53;;;0.95;;
43857;SDS011;29507;51.284;5.758;2023-07-22T14:00:12;2.00;;;1.00;;
43857;SDS011;29507;51.284;5.758;2023-07-22T14:02:39;3.25;;;0.95;;
43857;SDS011;29507;51.284;5.758;2023-07-22T14:05:06;2.00;;;0.80;;
43857;SDS011;29507;51.284;5.758;2023-07-22T14:07:32;7.88;;;1.15;;
43857;SDS011;29507;51.284;5.758;2023-07-22T14:09:58;2.35;;;0.90;;
43857;SDS011;29507;51.284;5.758;2023-07-22T14:12:23;2.80;;;1.35;;
43857;SDS011;29507;51.284;5.758;2023-07-22T14:14:49;2.63;;;0.95;;
43857;SDS011;29507;51.284;5.758;2023-07-22T14:17:14;1.80;;;0.90;;
43857;SDS011;29507;51.284;5.758;2023-07-22T14:19:40;2.70;;;1.02;;
43857;SDS011;29507;51.284;5.758;2023-07-22T14:22:06;3.33;;;1.02;;
43857;SDS011;29507;51.284;5.758;2023-07-22T14:24:33;3.50;;;1.30;;
43857;SDS011;29507;51.284;5.758;2023-07-22T14:26:59;3.40;;;0.80;;
43857;SDS011;29507;51.284;5.758;2023-07-22T14:29:24;2.53;;;1.00;;
43857;SDS011;29507;51.284;5.758;2023-07-22T14:31:50;3.05;;;1.65;;
43857;SDS011;29507;51.284;5.758;2023-07-22T14:34:17;2.45;;;1.17;;
43857;SDS011;29507;51.284;5.758;2023-07-22T14:36:42;3.63;;;1.23;;
43857;SDS011;29507;51.284;5.758;2023-07-22T14:39:08;2.58;;;1.15;;
43857;SDS011;29507;51.284;5.758;2023-07-22T14:41:35;2.92;;;1.35;;
43857;SDS011;29507;51.284;5.758;2023-07-22T14:44:00;3.80;;;1.40;;
43857;SDS011;29507;51.284;5.758;2023-07-22T14:46:26;4.32;;;1.48;;